Huntsville, Canada
Current Conditions -  °F | °C
As of 4:04 PM on Thursday 18 Dec 2014 (Local Time) from CYQA Reporting Station
Overcast Overcast  
Wind Chill: 11°   Ceiling: 1200
Heat Index: 21°   Visibility: 9mi
Dew Point: 18°   Wind: 9mph
Humidity: 86%   Direction: 340°NNW
Pressure: 30.06"   Gusts: NA
Location:  45.33°N, 79.22°W
Report Text: CYQA 182104Z AUTO 34008KT 300V020 9SM OVC012 M06/M08 A3006 RMK SLP196
Loading
Personal Weather Stations






























Interactive Weather Map New forecast layout! Learn more

10-Day Weather Forecast

Advertisements
Track Severe Weather on mobile